sensor_id;sensor_type;location;lat;lon;timestamp;P1;durP1;ratioP1;P2;durP2;ratioP2
1949;SDS011;975;48.760;9.152;2023-02-15T00:01:29;32.08;;;12.07;;
1949;SDS011;975;48.760;9.152;2023-02-15T00:03:57;40.03;;;14.02;;
1949;SDS011;975;48.760;9.152;2023-02-15T00:06:24;39.45;;;13.13;;
1949;SDS011;975;48.760;9.152;2023-02-15T00:08:54;29.73;;;12.27;;
1949;SDS011;975;48.760;9.152;2023-02-15T00:11:22;30.02;;;12.05;;
1949;SDS011;975;48.760;9.152;2023-02-15T00:14:03;32.85;;;12.85;;
1949;SDS011;975;48.760;9.152;2023-02-15T00:16:31;32.92;;;12.38;;
1949;SDS011;975;48.760;9.152;2023-02-15T00:19:02;34.42;;;14.50;;
1949;SDS011;975;48.760;9.152;2023-02-15T00:21:31;35.97;;;13.13;;
1949;SDS011;975;48.760;9.152;2023-02-15T00:24:01;32.45;;;12.65;;
1949;SDS011;975;48.760;9.152;2023-02-15T00:26:29;27.80;;;12.10;;
1949;SDS011;975;48.760;9.152;2023-02-15T00:28:57;27.27;;;11.30;;
1949;SDS011;975;48.760;9.152;2023-02-15T00:31:25;28.17;;;12.73;;
1949;SDS011;975;48.760;9.152;2023-02-15T00:33:53;32.42;;;12.75;;
1949;SDS011;975;48.760;9.152;2023-02-15T00:36:20;36.33;;;14.00;;
1949;SDS011;975;48.760;9.152;2023-02-15T00:38:48;34.60;;;12.93;;
1949;SDS011;975;48.760;9.152;2023-02-15T00:41:20;33.10;;;13.15;;
1949;SDS011;975;48.760;9.152;2023-02-15T00:43:47;27.38;;;11.68;;
1949;SDS011;975;48.760;9.152;2023-02-15T00:46:15;29.23;;;11.77;;
1949;SDS011;975;48.760;9.152;2023-02-15T00:48:42;34.38;;;12.40;;
1949;SDS011;975;48.760;9.152;2023-02-15T00:51:10;31.40;;;12.23;;
1949;SDS011;975;48.760;9.152;2023-02-15T00:53:37;29.55;;;12.80;;
1949;SDS011;975;48.760;9.152;2023-02-15T00:56:05;31.52;;;11.82;;
1949;SDS011;975;48.760;9.152;2023-02-15T00:58:34;32.33;;;12.63;;
1949;SDS011;975;48.760;9.152;2023-02-15T01:01:02;25.60;;;10.90;;
1949;SDS011;975;48.760;9.152;2023-02-15T01:03:31;29.13;;;12.15;;
1949;SDS011;975;48.760;9.152;2023-02-15T01:05:58;28.70;;;11.80;;
1949;SDS011;975;48.760;9.152;2023-02-15T01:08:26;29.15;;;12.65;;
1949;SDS011;975;48.760;9.152;2023-02-15T01:10:54;31.88;;;11.50;;
1949;SDS011;975;48.760;9.152;2023-02-15T01:13:22;30.80;;;11.70;;
1949;SDS011;975;48.760;9.152;2023-02-15T01:15:54;32.88;;;12.77;;
1949;SDS011;975;48.760;9.152;2023-02-15T01:18:21;30.98;;;12.02;;
1949;SDS011;975;48.760;9.152;2023-02-15T01:20:49;28.02;;;11.52;;
1949;SDS011;975;48.760;9.152;2023-02-15T01:23:17;26.38;;;11.25;;
1949;SDS011;975;48.760;9.152;2023-02-15T01:25:44;30.90;;;11.77;;
1949;SDS011;975;48.760;9.152;2023-02-15T01:28:12;27.48;;;12.23;;
1949;SDS011;975;48.760;9.152;2023-02-15T01:30:39;31.80;;;11.70;;
1949;SDS011;975;48.760;9.152;2023-02-15T01:33:09;30.67;;;10.75;;
1949;SDS011;975;48.760;9.152;2023-02-15T01:35:45;28.73;;;11.20;;
1949;SDS011;975;48.760;9.152;2023-02-15T01:38:16;28.25;;;10.90;;
1949;SDS011;975;48.760;9.152;2023-02-15T01:40:43;27.55;;;11.48;;
1949;SDS011;975;48.760;9.152;2023-02-15T01:43:11;27.85;;;11.40;;
1949;SDS011;975;48.760;9.152;2023-02-15T01:45:39;26.20;;;11.10;;
1949;SDS011;975;48.760;9.152;2023-02-15T01:48:14;27.38;;;10.73;;
1949;SDS011;975;48.760;9.152;2023-02-15T01:50:46;26.90;;;11.15;;
1949;SDS011;975;48.760;9.152;2023-02-15T01:53:15;31.55;;;11.90;;
1949;SDS011;975;48.760;9.152;2023-02-15T01:55:48;28.17;;;11.48;;
1949;SDS011;975;48.760;9.152;2023-02-15T01:58:17;28.08;;;11.52;;
1949;SDS011;975;48.760;9.152;2023-02-15T02:00:45;33.55;;;12.95;;
1949;SDS011;975;48.760;9.152;2023-02-15T02:03:14;32.10;;;11.55;;
1949;SDS011;975;48.760;9.152;2023-02-15T02:05:42;25.83;;;11.50;;
1949;SDS011;975;48.760;9.152;2023-02-15T02:08:10;25.55;;;11.60;;
1949;SDS011;975;48.760;9.152;2023-02-15T02:10:38;28.35;;;10.90;;
1949;SDS011;975;48.760;9.152;2023-02-15T02:13:05;30.98;;;10.80;;
1949;SDS011;975;48.760;9.152;2023-02-15T02:15:36;27.17;;;11.10;;
1949;SDS011;975;48.760;9.152;2023-02-15T02:18:10;24.40;;;10.65;;
1949;SDS011;975;48.760;9.152;2023-02-15T02:21:09;28.92;;;11.68;;
1949;SDS011;975;48.760;9.152;2023-02-15T02:23:51;27.73;;;10.43;;
1949;SDS011;975;48.760;9.152;2023-02-15T02:26:47;29.25;;;10.52;;
1949;SDS011;975;48.760;9.152;2023-02-15T02:32:23;24.85;;;10.27;;
1949;SDS011;975;48.760;9.152;2023-02-15T02:35:06;25.95;;;10.77;;
1949;SDS011;975;48.760;9.152;2023-02-15T02:37:39;30.30;;;11.43;;
1949;SDS011;975;48.760;9.152;2023-02-15T02:40:11;26.73;;;11.15;;
1949;SDS011;975;48.760;9.152;2023-02-15T02:42:42;27.50;;;11.07;;
1949;SDS011;975;48.760;9.152;2023-02-15T02:45:12;25.30;;;11.35;;
1949;SDS011;975;48.760;9.152;2023-02-15T02:47:42;24.92;;;10.75;;
1949;SDS011;975;48.760;9.152;2023-02-15T02:50:14;21.85;;;10.80;;
1949;SDS011;975;48.760;9.152;2023-02-15T02:55:11;30.40;;;10.02;;
1949;SDS011;975;48.760;9.152;2023-02-15T02:57:40;24.80;;;10.73;;
1949;SDS011;975;48.760;9.152;2023-02-15T03:00:11;29.38;;;10.88;;
1949;SDS011;975;48.760;9.152;2023-02-15T03:02:39;24.95;;;9.63;;
1949;SDS011;975;48.760;9.152;2023-02-15T03:05:10;26.15;;;10.10;;
1949;SDS011;975;48.760;9.152;2023-02-15T03:07:45;24.52;;;10.55;;
1949;SDS011;975;48.760;9.152;2023-02-15T03:10:15;25.65;;;10.27;;
1949;SDS011;975;48.760;9.152;2023-02-15T03:12:47;26.35;;;10.10;;
1949;SDS011;975;48.760;9.152;2023-02-15T03:15:16;25.98;;;10.63;;
1949;SDS011;975;48.760;9.152;2023-02-15T03:17:48;23.90;;;9.80;;
1949;SDS011;975;48.760;9.152;2023-02-15T03:20:21;25.70;;;9.98;;
1949;SDS011;975;48.760;9.152;2023-02-15T03:22:53;25.20;;;10.30;;
1949;SDS011;975;48.760;9.152;2023-02-15T03:27:55;22.80;;;8.95;;
1949;SDS011;975;48.760;9.152;2023-02-15T03:30:27;22.27;;;9.23;;
1949;SDS011;975;48.760;9.152;2023-02-15T03:32:56;22.67;;;9.88;;
1949;SDS011;975;48.760;9.152;2023-02-15T03:35:30;23.98;;;9.93;;
1949;SDS011;975;48.760;9.152;2023-02-15T03:38:03;23.30;;;9.65;;
1949;SDS011;975;48.760;9.152;2023-02-15T03:40:34;25.33;;;10.25;;
1949;SDS011;975;48.760;9.152;2023-02-15T03:43:24;27.38;;;9.85;;
1949;SDS011;975;48.760;9.152;2023-02-15T03:45:57;25.65;;;10.55;;
1949;SDS011;975;48.760;9.152;2023-02-15T03:48:30;27.25;;;9.98;;
1949;SDS011;975;48.760;9.152;2023-02-15T03:51:03;26.73;;;10.35;;
1949;SDS011;975;48.760;9.152;2023-02-15T03:53:51;17.60;;;9.00;;
1949;SDS011;975;48.760;9.152;2023-02-15T03:56:20;25.40;;;10.02;;
1949;SDS011;975;48.760;9.152;2023-02-15T03:58:51;24.15;;;9.77;;
1949;SDS011;975;48.760;9.152;2023-02-15T04:01:36;24.50;;;9.82;;
1949;SDS011;975;48.760;9.152;2023-02-15T04:04:30;26.40;;;10.00;;
1949;SDS011;975;48.760;9.152;2023-02-15T04:07:02;24.98;;;10.55;;
1949;SDS011;975;48.760;9.152;2023-02-15T04:09:31;28.52;;;10.38;;
1949;SDS011;975;48.760;9.152;2023-02-15T04:12:16;28.15;;;10.45;;
1949;SDS011;975;48.760;9.152;2023-02-15T04:14:43;25.17;;;10.00;;
1949;SDS011;975;48.760;9.152;2023-02-15T04:17:28;23.40;;;9.70;;
1949;SDS011;975;48.760;9.152;2023-02-15T04:19:58;26.25;;;10.02;;
1949;SDS011;975;48.760;9.152;2023-02-15T04:22:45;24.85;;;9.90;;
1949;SDS011;975;48.760;9.152;2023-02-15T04:25:30;28.45;;;10.85;;
1949;SDS011;975;48.760;9.152;2023-02-15T04:27:58;24.08;;;9.65;;
1949;SDS011;975;48.760;9.152;2023-02-15T04:30:26;25.10;;;9.05;;
1949;SDS011;975;48.760;9.152;2023-02-15T04:32:56;27.48;;;9.90;;
1949;SDS011;975;48.760;9.152;2023-02-15T04:35:26;26.73;;;10.55;;
1949;SDS011;975;48.760;9.152;2023-02-15T04:37:55;25.90;;;10.20;;
1949;SDS011;975;48.760;9.152;2023-02-15T04:40:23;23.45;;;9.40;;
1949;SDS011;975;48.760;9.152;2023-02-15T04:42:52;26.88;;;11.25;;
1949;SDS011;975;48.760;9.152;2023-02-15T04:45:20;26.88;;;10.38;;
1949;SDS011;975;48.760;9.152;2023-02-15T04:47:47;27.42;;;11.13;;
1949;SDS011;975;48.760;9.152;2023-02-15T04:50:15;25.83;;;9.88;;
1949;SDS011;975;48.760;9.152;2023-02-15T04:52:46;24.20;;;9.35;;
1949;SDS011;975;48.760;9.152;2023-02-15T04:55:15;23.92;;;10.77;;
1949;SDS011;975;48.760;9.152;2023-02-15T04:57:43;23.58;;;10.13;;
1949;SDS011;975;48.760;9.152;2023-02-15T05:00:11;27.08;;;10.02;;
1949;SDS011;975;48.760;9.152;2023-02-15T05:02:38;31.23;;;11.45;;
1949;SDS011;975;48.760;9.152;2023-02-15T05:05:06;22.40;;;9.68;;
1949;SDS011;975;48.760;9.152;2023-02-15T05:07:34;24.35;;;8.90;;
1949;SDS011;975;48.760;9.152;2023-02-15T05:10:02;22.10;;;10.60;;
1949;SDS011;975;48.760;9.152;2023-02-15T05:12:31;24.33;;;9.68;;
1949;SDS011;975;48.760;9.152;2023-02-15T05:14:59;27.27;;;10.27;;
1949;SDS011;975;48.760;9.152;2023-02-15T05:17:27;32.63;;;10.63;;
1949;SDS011;975;48.760;9.152;2023-02-15T05:19:54;24.38;;;11.75;;
1949;SDS011;975;48.760;9.152;2023-02-15T05:22:22;24.27;;;10.65;;
1949;SDS011;975;48.760;9.152;2023-02-15T05:24:49;24.30;;;10.98;;
1949;SDS011;975;48.760;9.152;2023-02-15T05:27:35;29.90;;;11.25;;
1949;SDS011;975;48.760;9.152;2023-02-15T05:30:20;24.70;;;10.80;;
1949;SDS011;975;48.760;9.152;2023-02-15T05:32:47;24.25;;;11.27;;
1949;SDS011;975;48.760;9.152;2023-02-15T05:35:15;27.65;;;12.00;;
1949;SDS011;975;48.760;9.152;2023-02-15T05:37:46;27.95;;;11.65;;
1949;SDS011;975;48.760;9.152;2023-02-15T05:40:16;26.77;;;10.65;;
1949;SDS011;975;48.760;9.152;2023-02-15T05:42:48;25.85;;;10.93;;
1949;SDS011;975;48.760;9.152;2023-02-15T05:47:45;25.10;;;10.73;;
1949;SDS011;975;48.760;9.152;2023-02-15T05:50:13;22.40;;;9.48;;
1949;SDS011;975;48.760;9.152;2023-02-15T05:52:40;24.33;;;10.18;;
1949;SDS011;975;48.760;9.152;2023-02-15T05:55:08;26.25;;;10.50;;
1949;SDS011;975;48.760;9.152;2023-02-15T05:57:35;23.95;;;9.65;;
1949;SDS011;975;48.760;9.152;2023-02-15T06:00:04;26.80;;;10.52;;
1949;SDS011;975;48.760;9.152;2023-02-15T06:02:34;30.17;;;12.05;;
1949;SDS011;975;48.760;9.152;2023-02-15T06:05:02;25.25;;;10.82;;
1949;SDS011;975;48.760;9.152;2023-02-15T06:07:31;26.42;;;10.18;;
1949;SDS011;975;48.760;9.152;2023-02-15T06:10:06;26.38;;;10.48;;
1949;SDS011;975;48.760;9.152;2023-02-15T06:12:43;26.52;;;10.55;;
1949;SDS011;975;48.760;9.152;2023-02-15T06:15:14;26.40;;;10.20;;
1949;SDS011;975;48.760;9.152;2023-02-15T06:17:41;25.05;;;10.23;;
1949;SDS011;975;48.760;9.152;2023-02-15T06:20:09;27.70;;;11.23;;
1949;SDS011;975;48.760;9.152;2023-02-15T06:22:37;26.52;;;10.73;;
1949;SDS011;975;48.760;9.152;2023-02-15T06:25:08;25.42;;;10.57;;
1949;SDS011;975;48.760;9.152;2023-02-15T06:27:36;25.05;;;11.05;;
1949;SDS011;975;48.760;9.152;2023-02-15T06:30:05;26.67;;;11.52;;
1949;SDS011;975;48.760;9.152;2023-02-15T06:32:35;37.45;;;13.63;;
1949;SDS011;975;48.760;9.152;2023-02-15T06:35:02;28.55;;;10.98;;
1949;SDS011;975;48.760;9.152;2023-02-15T06:37:30;30.50;;;10.45;;
1949;SDS011;975;48.760;9.152;2023-02-15T06:39:57;27.67;;;11.65;;
1949;SDS011;975;48.760;9.152;2023-02-15T06:42:25;25.48;;;10.98;;
1949;SDS011;975;48.760;9.152;2023-02-15T06:44:52;26.33;;;11.57;;
1949;SDS011;975;48.760;9.152;2023-02-15T06:47:20;29.92;;;11.30;;
1949;SDS011;975;48.760;9.152;2023-02-15T06:49:49;31.73;;;11.52;;
1949;SDS011;975;48.760;9.152;2023-02-15T06:52:17;30.35;;;11.45;;
1949;SDS011;975;48.760;9.152;2023-02-15T06:54:44;28.35;;;10.90;;
1949;SDS011;975;48.760;9.152;2023-02-15T06:57:12;30.02;;;12.25;;
1949;SDS011;975;48.760;9.152;2023-02-15T06:59:39;31.40;;;11.15;;
1949;SDS011;975;48.760;9.152;2023-02-15T07:02:07;31.77;;;11.27;;
1949;SDS011;975;48.760;9.152;2023-02-15T07:04:35;32.78;;;12.32;;
1949;SDS011;975;48.760;9.152;2023-02-15T07:07:08;30.20;;;11.20;;
1949;SDS011;975;48.760;9.152;2023-02-15T07:09:37;27.63;;;10.82;;
1949;SDS011;975;48.760;9.152;2023-02-15T07:12:05;30.00;;;11.57;;
1949;SDS011;975;48.760;9.152;2023-02-15T07:14:50;23.63;;;10.63;;
1949;SDS011;975;48.760;9.152;2023-02-15T07:17:18;26.65;;;10.85;;
1949;SDS011;975;48.760;9.152;2023-02-15T07:19:45;27.77;;;11.15;;
1949;SDS011;975;48.760;9.152;2023-02-15T07:22:17;25.50;;;11.35;;
1949;SDS011;975;48.760;9.152;2023-02-15T07:24:44;30.60;;;11.02;;
1949;SDS011;975;48.760;9.152;2023-02-15T07:27:12;30.65;;;11.15;;
1949;SDS011;975;48.760;9.152;2023-02-15T07:29:40;26.80;;;11.05;;
1949;SDS011;975;48.760;9.152;2023-02-15T07:32:07;26.67;;;11.63;;
1949;SDS011;975;48.760;9.152;2023-02-15T07:34:35;30.20;;;11.48;;
1949;SDS011;975;48.760;9.152;2023-02-15T07:37:03;29.52;;;11.82;;
1949;SDS011;975;48.760;9.152;2023-02-15T07:39:32;27.70;;;11.95;;
1949;SDS011;975;48.760;9.152;2023-02-15T07:41:59;26.80;;;10.95;;
1949;SDS011;975;48.760;9.152;2023-02-15T07:44:27;26.23;;;10.90;;
1949;SDS011;975;48.760;9.152;2023-02-15T07:46:54;29.48;;;11.15;;
1949;SDS011;975;48.760;9.152;2023-02-15T07:49:22;25.38;;;11.52;;
1949;SDS011;975;48.760;9.152;2023-02-15T07:51:49;23.15;;;9.02;;
1949;SDS011;975;48.760;9.152;2023-02-15T07:54:17;26.50;;;11.07;;
1949;SDS011;975;48.760;9.152;2023-02-15T07:56:46;25.23;;;10.55;;
1949;SDS011;975;48.760;9.152;2023-02-15T07:59:13;32.75;;;13.27;;
1949;SDS011;975;48.760;9.152;2023-02-15T08:01:41;33.92;;;11.70;;
1949;SDS011;975;48.760;9.152;2023-02-15T08:04:09;26.98;;;11.35;;
1949;SDS011;975;48.760;9.152;2023-02-15T08:06:38;26.42;;;12.48;;
1949;SDS011;975;48.760;9.152;2023-02-15T08:09:06;26.52;;;11.63;;
1949;SDS011;975;48.760;9.152;2023-02-15T08:11:34;27.67;;;11.88;;
1949;SDS011;975;48.760;9.152;2023-02-15T08:14:06;30.40;;;12.23;;
1949;SDS011;975;48.760;9.152;2023-02-15T08:16:35;29.45;;;12.27;;
1949;SDS011;975;48.760;9.152;2023-02-15T08:19:03;29.40;;;11.02;;
1949;SDS011;975;48.760;9.152;2023-02-15T08:21:32;23.00;;;10.05;;
1949;SDS011;975;48.760;9.152;2023-02-15T08:24:03;34.85;;;12.93;;
1949;SDS011;975;48.760;9.152;2023-02-15T08:26:31;30.08;;;11.02;;
1949;SDS011;975;48.760;9.152;2023-02-15T08:28:59;28.10;;;13.00;;
1949;SDS011;975;48.760;9.152;2023-02-15T08:31:28;30.80;;;13.15;;
1949;SDS011;975;48.760;9.152;2023-02-15T08:33:56;24.98;;;9.57;;
1949;SDS011;975;48.760;9.152;2023-02-15T08:36:24;32.22;;;12.40;;
1949;SDS011;975;48.760;9.152;2023-02-15T08:38:56;31.50;;;12.27;;
1949;SDS011;975;48.760;9.152;2023-02-15T08:41:28;27.73;;;10.88;;
1949;SDS011;975;48.760;9.152;2023-02-15T08:44:00;29.30;;;12.23;;
1949;SDS011;975;48.760;9.152;2023-02-15T08:46:29;32.85;;;13.38;;
1949;SDS011;975;48.760;9.152;2023-02-15T08:48:57;31.95;;;12.07;;
1949;SDS011;975;48.760;9.152;2023-02-15T08:51:25;28.92;;;12.88;;
1949;SDS011;975;48.760;9.152;2023-02-15T08:53:54;28.83;;;11.70;;
1949;SDS011;975;48.760;9.152;2023-02-15T08:56:23;22.40;;;10.25;;
1949;SDS011;975;48.760;9.152;2023-02-15T08:58:51;28.05;;;12.43;;
1949;SDS011;975;48.760;9.152;2023-02-15T09:01:19;25.42;;;12.75;;
1949;SDS011;975;48.760;9.152;2023-02-15T09:03:48;33.22;;;12.60;;
1949;SDS011;975;48.760;9.152;2023-02-15T09:06:18;27.50;;;13.50;;
1949;SDS011;975;48.760;9.152;2023-02-15T09:08:46;30.40;;;12.05;;
1949;SDS011;975;48.760;9.152;2023-02-15T09:11:14;29.38;;;12.40;;
1949;SDS011;975;48.760;9.152;2023-02-15T09:13:51;31.98;;;13.27;;
1949;SDS011;975;48.760;9.152;2023-02-15T09:16:20;35.08;;;14.30;;
1949;SDS011;975;48.760;9.152;2023-02-15T09:18:49;27.52;;;12.52;;
1949;SDS011;975;48.760;9.152;2023-02-15T09:21:18;31.58;;;13.18;;
1949;SDS011;975;48.760;9.152;2023-02-15T09:23:50;32.90;;;14.80;;
1949;SDS011;975;48.760;9.152;2023-02-15T09:26:18;34.00;;;14.10;;
1949;SDS011;975;48.760;9.152;2023-02-15T09:28:46;28.23;;;11.68;;
1949;SDS011;975;48.760;9.152;2023-02-15T09:31:14;30.40;;;14.30;;
1949;SDS011;975;48.760;9.152;2023-02-15T09:33:42;24.23;;;11.32;;
1949;SDS011;975;48.760;9.152;2023-02-15T09:36:15;18.80;;;9.35;;
1949;SDS011;975;48.760;9.152;2023-02-15T09:38:43;33.40;;;13.57;;
1949;SDS011;975;48.760;9.152;2023-02-15T09:41:19;32.83;;;13.88;;
1949;SDS011;975;48.760;9.152;2023-02-15T09:43:55;28.85;;;12.95;;
1949;SDS011;975;48.760;9.152;2023-02-15T09:46:32;29.10;;;11.93;;
1949;SDS011;975;48.760;9.152;2023-02-15T09:49:03;30.33;;;12.27;;
1949;SDS011;975;48.760;9.152;2023-02-15T09:51:47;28.42;;;13.55;;
1949;SDS011;975;48.760;9.152;2023-02-15T09:54:28;28.77;;;14.20;;
1949;SDS011;975;48.760;9.152;2023-02-15T09:57:04;33.75;;;14.48;;
1949;SDS011;975;48.760;9.152;2023-02-15T09:59:34;35.90;;;14.10;;
1949;SDS011;975;48.760;9.152;2023-02-15T10:02:08;28.50;;;12.93;;
1949;SDS011;975;48.760;9.152;2023-02-15T10:04:50;36.05;;;15.57;;
1949;SDS011;975;48.760;9.152;2023-02-15T10:07:26;31.30;;;13.23;;
1949;SDS011;975;48.760;9.152;2023-02-15T10:10:01;34.33;;;14.98;;
1949;SDS011;975;48.760;9.152;2023-02-15T10:12:37;30.85;;;13.52;;
1949;SDS011;975;48.760;9.152;2023-02-15T10:17:41;35.85;;;14.50;;
1949;SDS011;975;48.760;9.152;2023-02-15T10:20:17;28.67;;;13.20;;
1949;SDS011;975;48.760;9.152;2023-02-15T10:23:02;24.05;;;11.85;;
1949;SDS011;975;48.760;9.152;2023-02-15T10:25:33;34.08;;;13.85;;
1949;SDS011;975;48.760;9.152;2023-02-15T10:28:12;27.75;;;12.18;;
1949;SDS011;975;48.760;9.152;2023-02-15T10:30:44;35.47;;;15.77;;
1949;SDS011;975;48.760;9.152;2023-02-15T10:33:16;31.75;;;15.15;;
1949;SDS011;975;48.760;9.152;2023-02-15T10:35:50;32.75;;;15.05;;
1949;SDS011;975;48.760;9.152;2023-02-15T10:38:22;31.23;;;14.00;;
1949;SDS011;975;48.760;9.152;2023-02-15T10:40:53;33.10;;;13.52;;
1949;SDS011;975;48.760;9.152;2023-02-15T10:43:32;31.52;;;15.00;;
1949;SDS011;975;48.760;9.152;2023-02-15T10:46:04;35.55;;;16.10;;
1949;SDS011;975;48.760;9.152;2023-02-15T10:51:21;30.58;;;13.80;;
1949;SDS011;975;48.760;9.152;2023-02-15T10:54:00;35.35;;;15.55;;
1949;SDS011;975;48.760;9.152;2023-02-15T10:59:10;35.13;;;13.27;;
1949;SDS011;975;48.760;9.152;2023-02-15T11:01:47;33.58;;;14.20;;
1949;SDS011;975;48.760;9.152;2023-02-15T11:07:04;30.73;;;13.70;;
1949;SDS011;975;48.760;9.152;2023-02-15T11:09:36;27.20;;;12.23;;
1949;SDS011;975;48.760;9.152;2023-02-15T11:12:07;29.90;;;14.95;;
1949;SDS011;975;48.760;9.152;2023-02-15T11:14:37;39.03;;;14.57;;
1949;SDS011;975;48.760;9.152;2023-02-15T11:17:11;32.88;;;14.63;;
1949;SDS011;975;48.760;9.152;2023-02-15T11:19:41;33.85;;;15.30;;
1949;SDS011;975;48.760;9.152;2023-02-15T11:22:13;24.23;;;11.55;;
1949;SDS011;975;48.760;9.152;2023-02-15T11:24:42;29.27;;;14.50;;
1949;SDS011;975;48.760;9.152;2023-02-15T11:27:15;36.45;;;13.77;;
1949;SDS011;975;48.760;9.152;2023-02-15T11:29:52;33.95;;;14.40;;
1949;SDS011;975;48.760;9.152;2023-02-15T11:32:26;31.92;;;14.18;;
1949;SDS011;975;48.760;9.152;2023-02-15T11:34:56;31.05;;;13.73;;
1949;SDS011;975;48.760;9.152;2023-02-15T11:37:27;28.90;;;12.85;;
1949;SDS011;975;48.760;9.152;2023-02-15T11:44:58;27.00;;;11.57;;
1949;SDS011;975;48.760;9.152;2023-02-15T11:47:26;32.72;;;13.32;;
1949;SDS011;975;48.760;9.152;2023-02-15T11:49:54;26.55;;;13.05;;
1949;SDS011;975;48.760;9.152;2023-02-15T11:52:22;30.15;;;14.20;;
1949;SDS011;975;48.760;9.152;2023-02-15T11:54:50;32.97;;;15.80;;
1949;SDS011;975;48.760;9.152;2023-02-15T11:57:26;34.60;;;13.93;;
1949;SDS011;975;48.760;9.152;2023-02-15T11:59:58;31.85;;;15.30;;
1949;SDS011;975;48.760;9.152;2023-02-15T12:02:28;29.42;;;13.90;;
1949;SDS011;975;48.760;9.152;2023-02-15T12:04:58;31.83;;;15.65;;
1949;SDS011;975;48.760;9.152;2023-02-15T12:07:28;33.58;;;14.57;;
1949;SDS011;975;48.760;9.152;2023-02-15T12:10:00;28.48;;;13.73;;
1949;SDS011;975;48.760;9.152;2023-02-15T12:12:32;32.72;;;14.50;;
1949;SDS011;975;48.760;9.152;2023-02-15T12:15:03;31.00;;;14.00;;
1949;SDS011;975;48.760;9.152;2023-02-15T12:17:34;29.40;;;13.75;;
1949;SDS011;975;48.760;9.152;2023-02-15T12:20:04;31.50;;;14.77;;
1949;SDS011;975;48.760;9.152;2023-02-15T12:22:35;29.45;;;14.48;;
1949;SDS011;975;48.760;9.152;2023-02-15T12:25:04;37.63;;;14.35;;
1949;SDS011;975;48.760;9.152;2023-02-15T12:27:46;32.90;;;15.02;;
1949;SDS011;975;48.760;9.152;2023-02-15T12:30:18;30.90;;;13.52;;
1949;SDS011;975;48.760;9.152;2023-02-15T12:32:48;29.98;;;14.23;;
1949;SDS011;975;48.760;9.152;2023-02-15T12:35:18;42.67;;;16.80;;
1949;SDS011;975;48.760;9.152;2023-02-15T12:37:52;29.45;;;14.95;;
1949;SDS011;975;48.760;9.152;2023-02-15T12:40:21;29.88;;;14.70;;
1949;SDS011;975;48.760;9.152;2023-02-15T12:42:49;33.47;;;14.45;;
1949;SDS011;975;48.760;9.152;2023-02-15T12:45:22;34.33;;;13.52;;
1949;SDS011;975;48.760;9.152;2023-02-15T12:50:33;30.20;;;15.52;;
1949;SDS011;975;48.760;9.152;2023-02-15T12:53:05;35.75;;;15.52;;
1949;SDS011;975;48.760;9.152;2023-02-15T12:55:34;33.50;;;14.07;;
1949;SDS011;975;48.760;9.152;2023-02-15T12:58:05;29.73;;;15.10;;
1949;SDS011;975;48.760;9.152;2023-02-15T13:00:35;34.38;;;15.20;;
1949;SDS011;975;48.760;9.152;2023-02-15T13:03:02;30.00;;;15.05;;
1949;SDS011;975;48.760;9.152;2023-02-15T13:05:31;38.63;;;15.82;;
1949;SDS011;975;48.760;9.152;2023-02-15T13:08:00;31.02;;;14.68;;
1949;SDS011;975;48.760;9.152;2023-02-15T13:10:29;33.08;;;16.00;;
1949;SDS011;975;48.760;9.152;2023-02-15T13:12:58;33.72;;;14.35;;
1949;SDS011;975;48.760;9.152;2023-02-15T13:15:33;34.65;;;16.40;;
1949;SDS011;975;48.760;9.152;2023-02-15T13:18:03;29.60;;;16.17;;
1949;SDS011;975;48.760;9.152;2023-02-15T13:20:31;36.53;;;15.13;;
1949;SDS011;975;48.760;9.152;2023-02-15T13:23:00;27.20;;;15.70;;
1949;SDS011;975;48.760;9.152;2023-02-15T13:25:31;31.70;;;16.05;;
1949;SDS011;975;48.760;9.152;2023-02-15T13:28:00;30.77;;;15.52;;
1949;SDS011;975;48.760;9.152;2023-02-15T13:30:30;32.20;;;16.60;;
1949;SDS011;975;48.760;9.152;2023-02-15T13:33:01;32.08;;;15.43;;
1949;SDS011;975;48.760;9.152;2023-02-15T13:35:34;29.02;;;15.05;;
1949;SDS011;975;48.760;9.152;2023-02-15T13:38:11;30.10;;;14.70;;
1949;SDS011;975;48.760;9.152;2023-02-15T13:40:44;29.23;;;15.00;;
1949;SDS011;975;48.760;9.152;2023-02-15T13:43:18;32.00;;;15.15;;
1949;SDS011;975;48.760;9.152;2023-02-15T13:45:52;31.20;;;15.93;;
1949;SDS011;975;48.760;9.152;2023-02-15T13:48:23;29.70;;;14.77;;
1949;SDS011;975;48.760;9.152;2023-02-15T13:51:03;29.15;;;14.88;;
1949;SDS011;975;48.760;9.152;2023-02-15T13:53:40;28.77;;;15.30;;
1949;SDS011;975;48.760;9.152;2023-02-15T13:56:11;26.55;;;14.23;;
1949;SDS011;975;48.760;9.152;2023-02-15T13:58:48;34.85;;;15.52;;
1949;SDS011;975;48.760;9.152;2023-02-15T14:01:19;28.23;;;14.82;;
1949;SDS011;975;48.760;9.152;2023-02-15T14:06:22;28.77;;;13.73;;
1949;SDS011;975;48.760;9.152;2023-02-15T14:08:59;29.63;;;14.52;;
1949;SDS011;975;48.760;9.152;2023-02-15T14:11:32;27.92;;;14.57;;
1949;SDS011;975;48.760;9.152;2023-02-15T14:14:14;32.10;;;14.32;;
1949;SDS011;975;48.760;9.152;2023-02-15T14:16:46;28.48;;;14.60;;
1949;SDS011;975;48.760;9.152;2023-02-15T14:19:20;27.63;;;15.02;;
1949;SDS011;975;48.760;9.152;2023-02-15T14:21:53;28.45;;;13.10;;
1949;SDS011;975;48.760;9.152;2023-02-15T14:24:24;25.08;;;13.13;;
1949;SDS011;975;48.760;9.152;2023-02-15T14:26:56;24.50;;;12.40;;
1949;SDS011;975;48.760;9.152;2023-02-15T14:29:29;24.15;;;12.75;;
1949;SDS011;975;48.760;9.152;2023-02-15T14:32:03;25.45;;;13.35;;
1949;SDS011;975;48.760;9.152;2023-02-15T14:34:35;28.27;;;13.77;;
1949;SDS011;975;48.760;9.152;2023-02-15T14:37:09;21.08;;;12.40;;
1949;SDS011;975;48.760;9.152;2023-02-15T14:39:41;28.40;;;13.43;;
1949;SDS011;975;48.760;9.152;2023-02-15T14:42:30;28.90;;;13.13;;
1949;SDS011;975;48.760;9.152;2023-02-15T14:45:01;28.13;;;13.23;;
1949;SDS011;975;48.760;9.152;2023-02-15T14:47:32;26.17;;;13.00;;
1949;SDS011;975;48.760;9.152;2023-02-15T14:53:32;24.63;;;12.30;;
1949;SDS011;975;48.760;9.152;2023-02-15T14:56:05;22.52;;;11.85;;
1949;SDS011;975;48.760;9.152;2023-02-15T14:58:33;22.83;;;11.93;;
1949;SDS011;975;48.760;9.152;2023-02-15T15:01:03;24.33;;;12.52;;
1949;SDS011;975;48.760;9.152;2023-02-15T15:03:32;21.05;;;12.00;;
1949;SDS011;975;48.760;9.152;2023-02-15T15:06:01;19.50;;;11.20;;
1949;SDS011;975;48.760;9.152;2023-02-15T15:08:33;20.17;;;11.00;;
1949;SDS011;975;48.760;9.152;2023-02-15T15:13:52;25.65;;;11.43;;
1949;SDS011;975;48.760;9.152;2023-02-15T15:19:13;28.17;;;12.52;;
1949;SDS011;975;48.760;9.152;2023-02-15T15:22:04;24.52;;;12.68;;
1949;SDS011;975;48.760;9.152;2023-02-15T15:24:49;24.65;;;13.05;;
1949;SDS011;975;48.760;9.152;2023-02-15T15:27:37;23.48;;;11.50;;
1949;SDS011;975;48.760;9.152;2023-02-15T15:32:49;27.38;;;11.88;;
1949;SDS011;975;48.760;9.152;2023-02-15T15:35:21;22.33;;;10.60;;
1949;SDS011;975;48.760;9.152;2023-02-15T15:37:59;24.92;;;12.82;;
1949;SDS011;975;48.760;9.152;2023-02-15T15:40:46;20.25;;;11.55;;
1949;SDS011;975;48.760;9.152;2023-02-15T15:43:41;23.27;;;11.55;;
1949;SDS011;975;48.760;9.152;2023-02-15T15:46:30;22.33;;;11.88;;
1949;SDS011;975;48.760;9.152;2023-02-15T15:49:02;24.92;;;11.45;;
1949;SDS011;975;48.760;9.152;2023-02-15T15:51:33;22.63;;;11.57;;
1949;SDS011;975;48.760;9.152;2023-02-15T15:54:02;25.70;;;11.68;;
1949;SDS011;975;48.760;9.152;2023-02-15T15:56:32;27.75;;;11.98;;
1949;SDS011;975;48.760;9.152;2023-02-15T15:59:02;22.90;;;11.13;;
1949;SDS011;975;48.760;9.152;2023-02-15T16:04:02;24.00;;;11.25;;
1949;SDS011;975;48.760;9.152;2023-02-15T16:06:31;23.00;;;11.77;;
1949;SDS011;975;48.760;9.152;2023-02-15T16:09:13;21.08;;;11.43;;
1949;SDS011;975;48.760;9.152;2023-02-15T16:14:15;20.85;;;9.70;;
1949;SDS011;975;48.760;9.152;2023-02-15T16:16:49;21.38;;;11.07;;